Main page
METAR-TAF:

METAR-TAF

Airports :

Dortmund Airport

Dortmund, Germany

latitude: 51-31N, longitude: 007-37E, elevation: 127 m

Current weather observation

The report was made 30 minutes ago, at 13:50 UTC
Wind 7 kt from the East, varying between Northeast and East/Southeast
Temperature 13°C
Humidity 38%
Pressure 1024 hPa
Visibility 10 km or more
no clouds below 1500 m and no cumulonimbus

METAR: EDLW 041350Z 08007KT 040V120 CAVOK 13/M01 Q1024

Time: 16:20 (14:20 UTC)

Forecast

The report was made 6 hours and 30 minutes ago, at 07:50 UTC
Forecast valid from 04 at 08 UTC to 05 at 06 UTC
Wind 7 kt from the South/Southeast
Visibility 10 km or more
no clouds below 1500 m and no cumulonimbus
Becoming
from 04 at 10 UTC to 04 at 12 UTC
Wind 6 kt from the East
Becoming
from 04 at 18 UTC to 04 at 21 UTC
Wind 6 kt from the Southeast

TAF: EDLW 040750Z 0408/0506 16007KT CAVOK BECMG 0410/0412 08006KT BECMG 0418/0421 14006KT

Weather observations and forecasts of more than 4000 airports (METAR and TAF reports).

The available stations are represented by yellow and red dots on the map.

Hover mouse over dot to see the name of the station.

Then click to see weather observations and forecasts.

To change the map : click on the green buttons with a black cross to zoom in, on the green button with a dash to zoom out, or on the green arrows for adjacent maps.


METAR-TAF: